Time;durP1;ratioP1;P1;durP2;ratioP2;P2;SDS_P1;SDS_P2;PMS_P1;PMS_P2;Temp;Humidity;BMP_temperature;BMP_pressure;BME280_temperature;BME280_humidity;BME280_pressure;Samples;Min_cycle;Max_cycle;Signal;HPM_P1;HPM_P2
2023/02/04 00:00:22;;;;;;;55.03;25.08;;;;;;;9.04;100.00;103302.19;5283159;28;20024;-75
2023/02/04 00:02:52;;;;;;;63.05;25.40;;;;;;;9.04;100.00;103301.31;5261784;28;20134;-77
2023/02/04 00:05:22;;;;;;;64.20;27.45;;;;;;;9.01;100.00;103298.81;5242580;28;20058;-77
2023/02/04 00:07:53;;;;;;;69.53;28.00;;;;;;;9.07;100.00;103299.28;5243581;28;20077;-77
2023/02/04 00:10:23;;;;;;;66.03;28.55;;;;;;;9.04;100.00;103301.31;5239157;28;20052;-76
2023/02/04 00:12:54;;;;;;;64.95;29.33;;;;;;;9.03;100.00;103307.59;5243023;28;20438;-77
2023/02/04 00:15:24;;;;;;;60.50;28.38;;;;;;;9.05;100.00;103309.25;5246537;28;20020;-75
2023/02/04 00:17:55;;;;;;;72.80;27.33;;;;;;;9.05;100.00;103311.06;5243001;28;20024;-76
2023/02/04 00:20:25;;;;;;;60.15;27.15;;;;;;;9.06;100.00;103312.78;5243687;28;20623;-76
2023/02/04 00:22:56;;;;;;;61.95;26.98;;;;;;;9.05;100.00;103313.75;5255754;28;20388;-76
2023/02/04 00:25:26;;;;;;;65.82;26.92;;;;;;;9.08;100.00;103308.19;5245300;28;20441;-75
2023/02/04 00:27:57;;;;;;;65.07;26.90;;;;;;;9.11;100.00;103312.50;5241964;28;20500;-76
2023/02/04 00:30:27;;;;;;;70.07;27.45;;;;;;;9.12;100.00;103312.38;5243197;28;20373;-77
2023/02/04 00:32:58;;;;;;;72.63;28.83;;;;;;;9.10;100.00;103310.78;5242332;28;20029;-77
2023/02/04 00:35:28;;;;;;;70.20;30.70;;;;;;;9.13;100.00;103306.06;5245775;28;20040;-76
2023/02/04 00:37:58;;;;;;;72.72;29.90;;;;;;;9.10;100.00;103305.44;5242995;28;20021;-76
2023/02/04 00:40:29;;;;;;;71.45;29.85;;;;;;;9.08;100.00;103309.03;5252540;28;20032;-77
2023/02/04 00:42:59;;;;;;;74.40;29.83;;;;;;;9.04;100.00;103315.56;5246339;28;20162;-76
2023/02/04 00:45:30;;;;;;;77.45;28.80;;;;;;;8.97;100.00;103314.22;5243771;28;20452;-77
2023/02/04 00:48:00;;;;;;;80.30;30.90;;;;;;;8.93;100.00;103323.38;5248148;28;20404;-76
2023/02/04 00:50:31;;;;;;;78.93;30.48;;;;;;;8.80;100.00;103325.13;5256306;28;20028;-76
2023/02/04 00:53:01;;;;;;;77.05;27.88;;;;;;;8.66;100.00;103325.94;5247134;28;20028;-76
2023/02/04 00:55:32;;;;;;;85.70;29.85;;;;;;;8.54;100.00;103335.59;5246826;28;20031;-76
2023/02/04 00:58:02;;;;;;;81.40;29.15;;;;;;;8.44;100.00;103336.25;5246365;28;20150;-76
2023/02/04 01:00:33;;;;;;;89.13;30.65;;;;;;;8.37;100.00;103334.88;5260632;28;20020;-76
2023/02/04 01:03:03;;;;;;;92.05;32.00;;;;;;;8.28;100.00;103329.09;5254124;28;20135;-76
2023/02/04 01:05:34;;;;;;;103.55;34.17;;;;;;;8.24;100.00;103322.22;5250776;28;20048;-76
2023/02/04 01:08:04;;;;;;;97.93;31.55;;;;;;;8.18;100.00;103327.91;5245991;28;20025;-76
2023/02/04 01:10:35;;;;;;;91.95;29.77;;;;;;;8.14;100.00;103328.19;5246491;28;20615;-76
2023/02/04 01:13:07;;;;;;;92.38;30.63;;;;;;;8.10;100.00;103329.31;5246810;28;20028;-76
2023/02/04 01:15:37;;;;;;;91.63;30.88;;;;;;;8.05;100.00;103342.94;5253509;28;20122;-77
2023/02/04 01:18:08;;;;;;;90.70;31.42;;;;;;;7.99;100.00;103341.50;5253505;28;20123;-77
2023/02/04 01:20:38;;;;;;;88.43;29.15;;;;;;;7.96;100.00;103344.34;5246504;28;20124;-75
2023/02/04 01:23:08;;;;;;;81.22;29.02;;;;;;;7.93;100.00;103349.88;5246318;28;20029;-76
2023/02/04 01:25:39;;;;;;;88.32;28.10;;;;;;;7.92;100.00;103350.81;5246652;28;20028;-76
2023/02/04 01:28:10;;;;;;;82.18;27.17;;;;;;;7.90;100.00;103347.38;5245834;28;20024;-77
2023/02/04 01:30:40;;;;;;;66.43;22.85;;;;;;;7.86;100.00;103353.81;5245047;28;20029;-75
2023/02/04 01:33:11;;;;;;;78.35;25.45;;;;;;;7.81;100.00;103350.56;5246227;28;20032;-77
2023/02/04 01:35:41;;;;;;;73.60;23.63;;;;;;;7.75;100.00;103357.13;5255617;28;20039;-77
2023/02/04 01:38:12;;;;;;;65.00;22.02;;;;;;;7.70;100.00;103363.66;5262675;28;20627;-77
2023/02/04 01:40:42;;;;;;;70.43;20.23;;;;;;;7.64;100.00;103364.03;5246489;28;20480;-76
2023/02/04 01:43:13;;;;;;;62.58;18.20;;;;;;;7.58;100.00;103364.34;5245758;28;20024;-75
2023/02/04 01:45:45;;;;;;;62.20;18.38;;;;;;;7.58;100.00;103367.00;5246309;28;20012;-76
2023/02/04 01:48:19;;;;;;;59.58;16.40;;;;;;;7.55;100.00;103370.72;5245664;28;20492;-76
2023/02/04 01:50:52;;;;;;;61.70;17.60;;;;;;;7.57;100.00;103367.97;5245948;28;20031;-77
2023/02/04 01:53:25;;;;;;;51.17;15.85;;;;;;;7.53;100.00;103365.47;5246032;28;20115;-76
2023/02/04 01:55:55;;;;;;;60.67;15.10;;;;;;;7.50;100.00;103368.31;5245766;28;20035;-76
2023/02/04 01:58:33;;;;;;;55.47;14.18;;;;;;;7.47;100.00;103371.13;5244490;28;20424;-76
2023/02/04 02:01:30;;;;;;;46.88;13.48;;;;;;;7.47;100.00;103371.13;5244404;28;20458;-75
2023/02/04 02:04:01;;;;;;;46.75;12.82;;;;;;;7.44;100.00;103383.81;5245351;28;20040;-76
2023/02/04 02:06:31;;;;;;;48.88;12.60;;;;;;;7.45;100.00;103381.06;5234028;28;20032;-76
2023/02/04 02:09:02;;;;;;;49.20;13.80;;;;;;;7.48;100.00;103374.66;5245765;28;20033;-76
2023/02/04 02:11:33;;;;;;;50.15;13.20;;;;;;;7.46;100.00;103371.22;5244757;28;20028;-76
2023/02/04 02:14:04;;;;;;;51.50;13.30;;;;;;;7.48;100.00;103380.00;5245372;28;20507;-76
2023/02/04 02:16:34;;;;;;;57.88;14.77;;;;;;;7.46;100.00;103380.09;5248241;28;20054;-75
2023/02/04 02:19:28;;;;;;;50.05;12.63;;;;;;;7.44;100.00;103379.34;5245739;28;20476;-76
2023/02/04 02:22:04;;;;;;;49.70;13.27;;;;;;;7.43;100.00;103379.41;5258126;28;20103;-76
2023/02/04 02:24:48;;;;;;;46.15;12.57;;;;;;;7.43;100.00;103387.41;5245331;28;20396;-76
2023/02/04 02:27:23;;;;;;;45.03;12.48;;;;;;;7.41;100.00;103379.50;5244751;28;20032;-75
2023/02/04 02:30:08;;;;;;;40.50;12.50;;;;;;;7.40;100.00;103384.94;5245548;28;20063;-76
2023/02/04 02:32:39;;;;;;;51.90;11.87;;;;;;;7.39;100.00;103389.41;5244164;28;20032;-76
2023/02/04 02:35:10;;;;;;;45.75;12.48;;;;;;;7.38;100.00;103390.38;5245143;28;20055;-76
2023/02/04 02:37:41;;;;;;;45.03;12.40;;;;;;;7.38;100.00;103389.47;5257291;28;20020;-76
2023/02/04 02:40:13;;;;;;;47.65;14.27;;;;;;;7.37;100.00;103387.75;5266807;28;20028;-77
2023/02/04 02:42:47;;;;;;;45.50;11.73;;;;;;;7.35;100.00;103387.84;5251320;28;20047;-76
2023/02/04 02:45:23;;;;;;;45.10;12.20;;;;;;;7.36;100.00;103392.25;5245312;28;20040;-77
2023/02/04 02:47:56;;;;;;;52.15;12.38;;;;;;;7.36;100.00;103389.56;5262059;28;20036;-76
2023/02/04 02:50:30;;;;;;;47.60;14.38;;;;;;;7.37;100.00;103391.28;5255052;28;20757;-77
2023/02/04 02:53:01;;;;;;;47.72;12.68;;;;;;;7.39;100.00;103392.09;5263011;28;20028;-76
2023/02/04 02:55:31;;;;;;;52.47;13.73;;;;;;;7.40;100.00;103385.78;5253065;28;20576;-77
2023/02/04 02:58:18;;;;;;;47.20;12.27;;;;;;;7.39;100.00;103386.75;5265699;28;20439;-77
2023/02/04 03:00:49;;;;;;;37.88;12.00;;;;;;;7.37;100.00;103385.94;5265535;28;20035;-77
2023/02/04 03:03:24;;;;;;;52.20;12.85;;;;;;;7.37;100.00;103388.63;5266261;28;20051;-76
2023/02/04 03:06:01;;;;;;;54.25;12.93;;;;;;;7.36;100.00;103386.03;5247899;28;20024;-76
2023/02/04 03:08:31;;;;;;;42.88;11.60;;;;;;;7.36;100.00;103392.25;5285944;22;20045;-79
2023/02/04 03:11:02;;;;;;;42.95;12.63;;;;;;;7.38;100.00;103395.72;5288794;27;20396;-79
2023/02/04 03:13:33;;;;;;;49.95;14.70;;;;;;;7.40;100.00;103393.81;5267390;28;20032;-79
2023/02/04 03:16:05;;;;;;;45.13;13.45;;;;;;;7.40;100.00;103396.47;5265893;28;20070;-79
2023/02/04 03:18:36;;;;;;;52.15;14.50;;;;;;;7.41;100.00;103406.19;5247341;28;20052;-79
2023/02/04 03:21:07;;;;;;;57.40;13.90;;;;;;;7.41;100.00;103410.69;5275896;28;20106;-79
2023/02/04 03:23:38;;;;;;;48.45;12.82;;;;;;;7.41;100.00;103405.34;5272685;28;20019;-79
2023/02/04 03:26:08;;;;;;;50.70;14.07;;;;;;;7.41;100.00;103408.00;5256555;28;20039;-79
2023/02/04 03:28:40;;;;;;;44.05;13.57;;;;;;;7.40;100.00;103404.50;5284842;28;20028;-79
2023/02/04 03:31:11;;;;;;;46.22;12.63;;;;;;;7.40;100.00;103408.97;5274994;28;20028;-79
2023/02/04 03:33:42;;;;;;;49.17;14.25;;;;;;;7.41;100.00;103416.03;5273239;28;20365;-79
2023/02/04 03:36:12;;;;;;;58.78;15.02;;;;;;;7.41;100.00;103414.22;5271469;28;20032;-79
2023/02/04 03:38:42;;;;;;;49.05;13.23;;;;;;;7.40;100.00;103415.16;5265130;28;20019;-79
2023/02/04 03:41:13;;;;;;;55.63;13.43;;;;;;;7.40;100.00;103416.97;5267626;28;20115;-79
2023/02/04 03:43:43;;;;;;;55.00;12.63;;;;;;;7.39;100.00;103416.13;5276688;28;20114;-79
2023/02/04 03:46:14;;;;;;;54.92;13.82;;;;;;;7.39;100.00;103408.09;5265051;28;20085;-79
2023/02/04 03:48:44;;;;;;;47.75;14.10;;;;;;;7.37;100.00;103409.97;5276346;28;20019;-78
2023/02/04 03:51:15;;;;;;;47.03;13.00;;;;;;;7.38;100.00;103422.41;5254433;28;20031;-78
2023/02/04 03:53:45;;;;;;;56.58;12.98;;;;;;;7.39;100.00;103412.59;5286115;28;20026;-80
2023/02/04 03:56:16;;;;;;;54.88;14.30;;;;;;;7.38;100.00;103409.06;5279274;28;20141;-79
2023/02/04 03:58:46;;;;;;;51.92;14.20;;;;;;;7.37;100.00;103415.31;5277413;28;20049;-78
2023/02/04 04:01:17;;;;;;;54.88;13.98;;;;;;;7.36;100.00;103413.59;5278632;28;20327;-79
2023/02/04 04:03:47;;;;;;;48.95;14.38;;;;;;;7.38;100.00;103413.50;5246529;28;20016;-78
2023/02/04 04:06:17;;;;;;;61.88;16.27;;;;;;;7.38;100.00;103416.19;5273222;28;20098;-78
2023/02/04 04:08:48;;;;;;;64.47;17.08;;;;;;;7.38;100.00;103419.75;5272362;28;20114;-79
2023/02/04 04:11:20;;;;;;;53.95;16.52;;;;;;;7.39;100.00;103424.13;5267277;28;20035;-79
2023/02/04 04:13:51;;;;;;;71.82;18.27;;;;;;;7.40;100.00;103423.19;5286265;28;20020;-78
2023/02/04 04:16:21;;;;;;;58.83;14.75;;;;;;;7.40;100.00;103425.84;5285820;28;20384;-79
2023/02/04 04:18:52;;;;;;;62.15;19.63;;;;;;;7.41;100.00;103429.38;5247994;28;20035;-79
2023/02/04 04:21:22;;;;;;;62.85;17.95;;;;;;;7.41;100.00;103426.72;5281869;28;20015;-80
2023/02/04 04:23:53;;;;;;;57.97;18.35;;;;;;;7.41;100.00;103432.06;5259167;28;20110;-79
2023/02/04 04:26:23;;;;;;;64.32;16.00;;;;;;;7.40;100.00;103425.00;5275898;28;20023;-79
2023/02/04 04:28:54;;;;;;;85.75;26.42;;;;;;;7.40;100.00;103431.19;5282297;28;20189;-79
2023/02/04 04:31:24;;;;;;;89.05;31.20;;;;;;;7.43;100.00;103424.81;5282906;28;20470;-79
2023/02/04 04:33:54;;;;;;;80.32;22.65;;;;;;;7.44;100.00;103432.75;5268714;28;20347;-80
2023/02/04 04:36:25;;;;;;;106.40;43.65;;;;;;;7.43;100.00;103438.16;5252619;28;20069;-79
2023/02/04 04:38:55;;;;;;;69.60;20.42;;;;;;;7.41;100.00;103432.91;5289760;28;20027;-79
2023/02/04 04:41:26;;;;;;;85.68;26.27;;;;;;;7.43;100.00;103433.72;5271736;28;20028;-79
2023/02/04 04:43:56;;;;;;;76.50;24.85;;;;;;;7.42;100.00;103433.78;5262251;28;20034;-79
2023/02/04 04:46:27;;;;;;;80.72;24.45;;;;;;;7.41;100.00;103424.91;5275253;28;20106;-79
2023/02/04 04:48:57;;;;;;;127.70;43.33;;;;;;;7.41;100.00;103432.06;5289092;28;20034;-80
2023/02/04 04:51:31;;;;;;;78.95;24.42;;;;;;;7.42;100.00;103437.31;5268546;28;20024;-79
2023/02/04 04:54:01;;;;;;;129.00;49.88;;;;;;;7.43;100.00;103438.16;5267993;28;20039;-80
2023/02/04 04:56:32;;;;;;;77.75;21.83;;;;;;;7.43;100.00;103440.84;5276542;28;20019;-79
2023/02/04 04:59:02;;;;;;;151.23;55.15;;;;;;;7.41;100.00;103437.41;5254919;28;20054;-79
2023/02/04 05:01:33;;;;;;;86.28;29.83;;;;;;;7.40;100.00;103441.88;5277671;28;20389;-79
2023/02/04 05:04:04;;;;;;;104.07;38.25;;;;;;;7.39;100.00;103445.50;5272188;28;20027;-79
2023/02/04 05:06:34;;;;;;;91.03;30.38;;;;;;;7.39;100.00;103442.81;5267831;28;20027;-79
2023/02/04 05:09:05;;;;;;;88.47;26.75;;;;;;;7.39;100.00;103441.97;5286172;28;20039;-79
2023/02/04 05:11:35;;;;;;;88.85;24.23;;;;;;;7.38;100.00;103438.44;5288869;28;20023;-79
2023/02/04 05:14:06;;;;;;;83.85;23.33;;;;;;;7.39;100.00;103442.81;5270037;28;20385;-79
2023/02/04 05:16:36;;;;;;;78.07;20.98;;;;;;;7.38;100.00;103441.09;5284034;28;20038;-80
2023/02/04 05:19:06;;;;;;;83.53;22.98;;;;;;;7.38;100.00;103442.88;5267997;28;20028;-79
2023/02/04 05:21:37;;;;;;;81.90;22.67;;;;;;;7.36;100.00;103442.97;5267654;28;20134;-79
2023/02/04 05:24:07;;;;;;;82.30;24.33;;;;;;;7.37;100.00;103443.84;5258290;28;20122;-79
2023/02/04 05:26:38;;;;;;;93.10;23.38;;;;;;;7.37;100.00;103438.50;5274751;28;20024;-79
2023/02/04 05:29:09;;;;;;;96.82;27.60;;;;;;;7.36;100.00;103437.63;5288692;28;20059;-80
2023/02/04 05:31:39;;;;;;;110.53;25.80;;;;;;;7.37;100.00;103449.19;5253055;28;20066;-79
2023/02/04 05:34:10;;;;;;;89.25;25.38;;;;;;;7.38;100.00;103443.78;5267555;28;20061;-79
2023/02/04 05:36:40;;;;;;;107.65;29.13;;;;;;;7.40;100.00;103443.69;5285370;28;20023;-79
2023/02/04 05:39:11;;;;;;;109.72;29.25;;;;;;;7.39;100.00;103445.50;5288890;28;20168;-80
2023/02/04 05:41:41;;;;;;;107.57;28.17;;;;;;;7.41;100.00;103454.28;5268435;28;20028;-79
2023/02/04 05:44:12;;;;;;;98.10;33.95;;;;;;;7.45;100.00;103453.19;5267718;28;20477;-79
2023/02/04 05:46:42;;;;;;;106.57;27.65;;;;;;;7.45;100.00;103455.84;5281010;28;20039;-79
2023/02/04 05:49:13;;;;;;;109.50;27.25;;;;;;;7.44;100.00;103454.13;5267168;28;20024;-79
2023/02/04 05:51:43;;;;;;;95.07;27.08;;;;;;;7.45;100.00;103463.00;5267169;28;20072;-79
2023/02/04 05:54:18;;;;;;;129.18;32.20;;;;;;;7.44;100.00;103454.13;5267271;28;20024;-78
2023/02/04 05:56:50;;;;;;;107.03;33.43;;;;;;;7.46;100.00;103456.72;5277245;28;20027;-79
2023/02/04 05:59:21;;;;;;;111.18;33.85;;;;;;;7.49;100.00;103461.91;5282155;27;20027;-79
2023/02/04 06:01:51;;;;;;;113.63;29.52;;;;;;;7.47;100.00;103471.78;5266772;28;20024;-78
2023/02/04 06:04:22;;;;;;;120.82;27.65;;;;;;;7.44;100.00;103475.50;5280946;28;20157;-79
2023/02/04 06:06:52;;;;;;;98.35;27.73;;;;;;;7.45;100.00;103477.22;5279666;28;20387;-78
2023/02/04 06:09:22;;;;;;;96.15;27.48;;;;;;;7.45;100.00;103471.88;5281081;28;20032;-79
2023/02/04 06:11:53;;;;;;;104.45;28.92;;;;;;;7.47;100.00;103477.97;5262327;28;20034;-80
2023/02/04 06:14:23;;;;;;;108.85;27.60;;;;;;;7.45;100.00;103474.53;5249050;28;20424;-77
2023/02/04 06:16:54;;;;;;;98.90;26.25;;;;;;;7.45;100.00;103481.69;5280556;28;20480;-78
2023/02/04 06:19:24;;;;;;;102.20;29.25;;;;;;;7.45;100.00;103484.38;5266975;28;20031;-78
2023/02/04 06:21:55;;;;;;;109.75;27.48;;;;;;;7.45;100.00;103490.56;5283003;28;20072;-78
2023/02/04 06:24:25;;;;;;;98.35;27.30;;;;;;;7.44;100.00;103488.84;5277351;28;20028;-76
2023/02/04 06:26:56;;;;;;;120.10;29.45;;;;;;;7.43;100.00;103494.25;5284138;28;20020;-76
2023/02/04 06:29:26;;;;;;;115.55;31.08;;;;;;;7.42;100.00;103498.72;5287970;28;20106;-76
2023/02/04 06:31:56;;;;;;;118.68;29.23;;;;;;;7.42;100.00;103503.22;5282493;28;20048;-78
2023/02/04 06:34:27;;;;;;;118.90;30.40;;;;;;;7.40;100.00;103503.31;5266324;28;20027;-78
2023/02/04 06:36:57;;;;;;;102.80;28.55;;;;;;;7.38;100.00;103512.31;5265364;28;20024;-78
2023/02/04 06:39:28;;;;;;;113.50;31.92;;;;;;;7.36;100.00;103515.09;5266339;28;20028;-77
2023/02/04 06:41:58;;;;;;;107.13;30.73;;;;;;;7.35;100.00;103518.72;5266154;28;20068;-77
2023/02/04 06:44:29;;;;;;;116.05;31.55;;;;;;;7.35;100.00;103529.38;5280861;27;20023;-76
2023/02/04 06:46:59;;;;;;;93.18;28.13;;;;;;;7.35;100.00;103521.38;5278514;28;20019;-78
2023/02/04 06:49:30;;;;;;;104.20;28.73;;;;;;;7.34;100.00;103530.34;5267846;28;20387;-78
2023/02/04 06:52:00;;;;;;;110.25;29.00;;;;;;;7.36;100.00;103536.44;5277210;28;20385;-79
2023/02/04 06:54:31;;;;;;;102.47;28.60;;;;;;;7.36;100.00;103536.44;5280882;28;20023;-80
2023/02/04 06:57:15;;;;;;;112.53;30.85;;;;;;;7.38;100.00;103539.03;5271886;28;20023;-79
2023/02/04 07:00:07;;;;;;;105.75;26.58;;;;;;;7.36;100.00;103552.47;5271520;28;20031;-79
2023/02/04 07:02:38;;;;;;;90.72;26.63;;;;;;;7.36;100.00;103533.78;5286268;28;20102;-80
2023/02/04 07:05:09;;;;;;;99.82;26.95;;;;;;;7.37;100.00;103542.66;5267662;28;20114;-79
2023/02/04 07:07:39;;;;;;;101.20;27.42;;;;;;;7.36;100.00;103552.47;5285227;28;20027;-79
2023/02/04 07:10:10;;;;;;;122.53;29.70;;;;;;;7.36;100.00;103546.28;5284974;28;20055;-83
2023/02/04 07:12:40;;;;;;;111.35;30.35;;;;;;;7.36;100.00;103546.28;5246861;28;20115;-78
2023/02/04 07:15:11;;;;;;;105.93;27.08;;;;;;;7.35;100.00;103549.91;5278967;28;20012;-79
2023/02/04 07:17:41;;;;;;;98.93;27.23;;;;;;;7.34;100.00;103549.03;5267985;28;20477;-80
2023/02/04 07:20:12;;;;;;;107.75;27.40;;;;;;;7.35;100.00;103561.44;5248391;28;20031;-77
2023/02/04 07:22:42;;;;;;;107.47;28.55;;;;;;;7.34;100.00;103551.69;5265099;28;20104;-77
2023/02/04 07:25:16;;;;;;;107.72;29.17;;;;;;;7.37;100.00;103566.69;5263560;28;20028;-77
2023/02/04 07:27:46;;;;;;;110.95;30.15;;;;;;;7.36;100.00;103562.28;5275784;28;20084;-77
2023/02/04 07:30:17;;;;;;;102.82;29.65;;;;;;;7.36;100.00;103567.63;5266670;28;20070;-77
2023/02/04 07:32:47;;;;;;;108.68;27.65;;;;;;;7.37;100.00;103574.69;5264738;28;20028;-77
2023/02/04 07:35:18;;;;;;;118.25;28.52;;;;;;;7.36;100.00;103570.31;5269937;28;20475;-77
2023/02/04 07:37:49;;;;;;;112.95;28.70;;;;;;;7.35;100.00;103565.91;5285400;28;20569;-77
2023/02/04 07:40:20;;;;;;;103.53;26.75;;;;;;;7.36;100.00;103579.19;5264149;28;20064;-78
2023/02/04 07:42:51;;;;;;;110.03;25.95;;;;;;;7.35;100.00;103580.13;5265681;28;20485;-77
2023/02/04 07:45:21;;;;;;;109.40;26.95;;;;;;;7.35;100.00;103580.13;5276063;28;20031;-77
2023/02/04 07:47:52;;;;;;;104.18;25.70;;;;;;;7.35;100.00;103577.47;5266475;28;20150;-77
2023/02/04 07:50:22;;;;;;;101.90;26.42;;;;;;;7.37;100.00;103572.03;5281624;28;20358;-77
2023/02/04 07:52:53;;;;;;;98.03;27.38;;;;;;;7.37;100.00;103580.03;5279040;28;20059;-77
2023/02/04 07:55:23;;;;;;;104.32;26.67;;;;;;;7.38;100.00;103571.97;5265495;28;20494;-77
2023/02/04 07:57:54;;;;;;;99.53;25.13;;;;;;;7.39;100.00;103571.03;5286397;28;20012;-76
2023/02/04 08:00:25;;;;;;;108.90;26.85;;;;;;;7.41;100.00;103574.47;5275537;28;20625;-77
2023/02/04 08:02:55;;;;;;;105.68;25.65;;;;;;;7.43;100.00;103559.25;5289879;28;20062;-77
2023/02/04 08:05:26;;;;;;;107.57;27.63;;;;;;;7.44;100.00;103568.97;5276434;28;20027;-77
2023/02/04 08:07:57;;;;;;;133.93;34.78;;;;;;;7.46;100.00;103564.41;5258930;28;20027;-77
2023/02/04 08:10:27;;;;;;;123.72;32.88;;;;;;;7.47;100.00;103576.81;5269683;28;20028;-77
2023/02/04 08:12:58;;;;;;;130.52;33.40;;;;;;;7.49;100.00;103569.59;5268854;28;20027;-77
2023/02/04 08:15:28;;;;;;;159.60;38.75;;;;;;;7.49;100.00;103580.28;5268814;28;20012;-77
2023/02/04 08:17:59;;;;;;;124.03;30.85;;;;;;;7.52;100.00;103580.09;5268672;28;20077;-77
2023/02/04 08:20:29;;;;;;;123.15;30.63;;;;;;;7.53;100.00;103575.66;5264079;28;20024;-77
2023/02/04 08:23:00;;;;;;;112.03;28.05;;;;;;;7.55;100.00;103575.56;5250902;28;20032;-77
2023/02/04 08:25:31;;;;;;;105.63;26.35;;;;;;;7.56;100.00;103577.28;5281972;28;20484;-77
2023/02/04 08:28:02;;;;;;;123.95;29.73;;;;;;;7.57;100.00;103581.69;5281841;28;20031;-77
2023/02/04 08:30:32;;;;;;;114.00;28.05;;;;;;;7.57;100.00;103579.00;5275659;28;20028;-77
2023/02/04 08:33:03;;;;;;;120.70;29.30;;;;;;;7.57;100.00;103582.53;5270689;28;20073;-78
2023/02/04 08:35:33;;;;;;;130.82;32.83;;;;;;;7.58;100.00;103594.09;5277378;28;20472;-78
2023/02/04 08:38:04;;;;;;;107.22;28.65;;;;;;;7.59;100.00;103593.19;5254460;28;20077;-78
2023/02/04 08:40:34;;;;;;;113.13;27.27;;;;;;;7.63;100.00;103594.72;5277710;28;20104;-78
2023/02/04 08:43:05;;;;;;;100.68;30.27;;;;;;;7.67;100.00;103604.31;5254181;28;20388;-78
2023/02/04 08:45:35;;;;;;;113.20;28.80;;;;;;;7.67;100.00;103590.94;5268390;28;20039;-78
2023/02/04 08:48:06;;;;;;;124.35;29.58;;;;;;;7.69;100.00;103594.41;5249401;28;20100;-78
2023/02/04 08:50:37;;;;;;;96.38;28.13;;;;;;;7.72;100.00;103604.94;5279870;28;20035;-78
2023/02/04 08:53:07;;;;;;;108.30;25.98;;;;;;;7.79;100.00;103607.22;5264494;28;20161;-78
2023/02/04 08:55:37;;;;;;;108.40;28.10;;;;;;;7.79;100.00;103617.91;5268121;28;20108;-78
2023/02/04 08:58:08;;;;;;;104.18;25.35;;;;;;;7.82;100.00;103618.66;5280325;28;20051;-78
2023/02/04 09:00:38;;;;;;;110.43;27.63;;;;;;;7.86;100.00;103621.09;5267855;28;20244;-78
2023/02/04 09:03:09;;;;;;;99.90;31.35;;;;;;;7.89;100.00;103626.31;5280024;28;20233;-78
2023/02/04 09:05:39;;;;;;;106.68;27.50;;;;;;;7.91;100.00;103628.88;5249030;28;20036;-78
2023/02/04 09:08:10;;;;;;;107.68;27.95;;;;;;;7.89;100.00;103634.31;5276785;28;20030;-78
2023/02/04 09:10:40;;;;;;;100.18;28.13;;;;;;;7.89;100.00;103633.47;5270959;28;20477;-78
2023/02/04 09:13:11;;;;;;;109.00;28.45;;;;;;;7.90;100.00;103637.84;5260338;28;20023;-77
2023/02/04 09:15:41;;;;;;;105.45;29.25;;;;;;;7.93;100.00;103645.69;5274265;28;20100;-78
2023/02/04 09:18:24;;;;;;;98.10;27.88;;;;;;;7.95;100.00;103647.34;5288036;28;20027;-78
2023/02/04 09:21:12;;;;;;;104.50;28.48;;;;;;;7.99;100.00;103643.59;5264630;28;20028;-78
2023/02/04 09:23:43;;;;;;;105.05;27.25;;;;;;;8.03;100.00;103645.16;5248972;28;20027;-78
2023/02/04 09:26:14;;;;;;;120.53;30.65;;;;;;;8.02;100.00;103650.56;5267353;28;20032;-78
2023/02/04 09:28:44;;;;;;;103.43;27.48;;;;;;;8.04;100.00;103646.88;5267498;28;20503;-78
2023/02/04 09:31:15;;;;;;;99.25;26.77;;;;;;;8.04;100.00;103643.34;5240579;28;20028;-78
2023/02/04 09:33:46;;;;;;;98.38;27.67;;;;;;;8.03;100.00;103642.47;5262707;28;20024;-78
2023/02/04 09:36:16;;;;;;;97.82;26.67;;;;;;;8.05;100.00;103645.91;5248719;28;20024;-78
2023/02/04 09:38:47;;;;;;;104.05;29.15;;;;;;;8.06;100.00;103649.47;5262744;28;20028;-77
2023/02/04 09:41:17;;;;;;;115.95;30.20;;;;;;;8.10;100.00;103651.03;5248453;28;20507;-78
2023/02/04 09:43:48;;;;;;;98.28;29.05;;;;;;;8.14;100.00;103649.94;5248951;28;20112;-78
2023/02/04 09:46:21;;;;;;;105.68;28.15;;;;;;;8.19;100.00;103647.00;5251277;28;20511;-78
2023/02/04 09:48:51;;;;;;;113.57;31.05;;;;;;;8.22;100.00;103653.03;5276586;28;20513;-78
2023/02/04 09:51:27;;;;;;;113.43;32.20;;;;;;;8.25;100.00;103650.19;5270756;28;20038;-78
2023/02/04 09:54:02;;;;;;;;;;;;;;;8.26;100.00;103653.75;5257413;28;20019;-77
2023/02/04 09:56:33;;;;;;;108.57;27.25;;;;;;;8.29;100.00;103653.59;5273459;28;19907;-78
2023/02/04 09:59:10;;;;;;;92.55;26.02;;;;;;;8.31;100.00;103662.38;5271175;28;20435;-78
2023/02/04 10:01:40;;;;;;;100.80;29.25;;;;;;;8.32;100.00;103662.28;5260749;28;20111;-77
2023/02/04 10:04:13;;;;;;;112.30;29.77;;;;;;;8.35;100.00;103668.44;5270741;28;20107;-77
2023/02/04 10:06:44;;;;;;;113.13;30.02;;;;;;;8.41;100.00;103663.63;5257004;28;20043;-78
2023/02/04 10:09:15;;;;;;;98.70;25.80;;;;;;;8.42;100.00;103659.16;5272290;28;20031;-78
2023/02/04 10:11:47;;;;;;;82.25;25.13;;;;;;;8.46;100.00;103661.56;5273230;28;20034;-77
2023/02/04 10:14:21;;;;;;;86.75;24.88;;;;;;;8.53;100.00;103665.66;5280043;28;20031;-77
2023/02/04 10:16:56;;;;;;;84.22;24.33;;;;;;;8.60;100.00;103673.34;5249186;28;20030;-77
2023/02/04 10:19:29;;;;;;;71.57;20.75;;;;;;;8.62;100.00;103674.09;5276892;28;20082;-77
2023/02/04 10:22:01;;;;;;;69.18;22.38;;;;;;;8.64;100.00;103674.91;5264843;28;20058;-78
2023/02/04 10:24:33;;;;;;;70.20;20.58;;;;;;;8.57;100.00;103672.53;5257744;28;20028;-77
2023/02/04 10:27:19;;;;;;;67.07;21.60;;;;;;;8.57;100.00;103664.53;5284466;28;20015;-78
2023/02/04 10:30:15;;;;;;;56.58;19.55;;;;;;;8.63;100.00;103666.00;5271960;28;20070;-77
2023/02/04 10:32:46;;;;;;;50.15;19.23;;;;;;;8.66;100.00;103670.31;5249880;28;20087;-78
2023/02/04 10:35:19;;;;;;;59.67;18.70;;;;;;;8.66;100.00;103667.66;5265957;28;20445;-78
2023/02/04 10:38:03;;;;;;;65.05;17.52;;;;;;;8.72;100.00;103678.00;5279173;28;20016;-78
2023/02/04 10:40:35;;;;;;;49.28;16.33;;;;;;;8.70;100.00;103672.75;5277211;28;20504;-78
2023/02/04 10:43:09;;;;;;;57.45;18.60;;;;;;;8.70;100.00;103685.28;5265389;28;20024;-78
2023/02/04 10:45:44;;;;;;;64.10;19.52;;;;;;;8.66;100.00;103684.56;5247853;28;20393;-78
2023/02/04 10:48:16;;;;;;;56.17;19.70;;;;;;;8.66;100.00;103689.06;5265661;28;20123;-78
2023/02/04 10:50:48;;;;;;;51.92;18.10;;;;;;;8.56;100.00;103681.53;5265599;28;20050;-78
2023/02/04 10:56:16;;;;;;;54.40;16.52;;;;;;;8.57;100.00;103691.28;5279184;28;20031;-78
2023/02/04 10:58:47;;;;;;;52.13;18.52;;;;;;;8.62;100.00;103687.50;5265956;28;20023;-78
2023/02/04 11:01:18;;;;;;;59.67;20.63;;;;;;;8.66;100.00;103686.38;5272431;28;20066;-78
2023/02/04 11:03:48;;;;;;;67.43;21.75;;;;;;;8.68;100.00;103688.00;5285432;28;20079;-78
2023/02/04 11:06:22;;;;;;;58.10;20.35;;;;;;;8.71;100.00;103687.84;5265569;28;20469;-77
2023/02/04 11:08:54;;;;;;;50.47;16.58;;;;;;;8.71;100.00;103681.63;5257182;28;20031;-78
2023/02/04 11:11:25;;;;;;;52.67;15.88;;;;;;;8.70;100.00;103680.78;5274182;28;20114;-78
2023/02/04 11:14:00;;;;;;;57.20;18.70;;;;;;;8.71;100.00;103678.97;5284841;28;20023;-78
2023/02/04 11:16:34;;;;;;;;;;;;;;;8.68;100.00;103679.13;5255413;28;20055;-78
2023/02/04 11:19:11;;;;;;;65.65;20.05;;;;;;;8.72;100.00;103678.88;5246590;28;19908;-77
2023/02/04 11:21:44;;;;;;;56.72;18.52;;;;;;;8.78;100.00;103678.50;5278484;28;20034;-78
2023/02/04 11:24:15;;;;;;;48.85;17.45;;;;;;;8.78;100.00;103683.88;5284977;28;20437;-78
2023/02/04 11:26:47;;;;;;;46.83;17.55;;;;;;;8.79;100.00;103687.44;5281172;28;20065;-78
2023/02/04 11:29:37;;;;;;;42.13;13.85;;;;;;;8.82;100.00;103679.22;5255569;28;20076;-78